createdAt,value
2022-10-22T00:02:27.709Z,12.80
2022-10-22T00:04:56.915Z,12.70
2022-10-22T00:07:23.804Z,12.70
2022-10-22T00:09:50.486Z,12.80
2022-10-22T00:12:17.949Z,12.80
2022-10-22T00:14:44.721Z,12.80
2022-10-22T00:17:11.804Z,12.70
2022-10-22T00:19:39.324Z,12.70
2022-10-22T00:22:07.073Z,12.70
2022-10-22T00:24:35.707Z,12.70
2022-10-22T00:27:03.616Z,12.70
2022-10-22T00:29:30.366Z,12.70
2022-10-22T00:31:57.124Z,12.70
2022-10-22T00:34:24.420Z,12.70
2022-10-22T00:36:52.073Z,12.60
2022-10-22T00:39:24.180Z,12.60
2022-10-22T00:41:53.316Z,12.60
2022-10-22T00:45:08.484Z,12.50
2022-10-22T00:48:04.441Z,12.50
2022-10-22T00:50:57.268Z,12.50
2022-10-22T00:53:32.752Z,12.50
2022-10-22T00:55:59.621Z,12.50
2022-10-22T00:58:31.493Z,12.50
2022-10-22T01:00:58.558Z,12.50
2022-10-22T01:03:25.397Z,12.50
2022-10-22T01:05:58.810Z,12.50
2022-10-22T01:08:48.010Z,12.60
2022-10-22T01:11:52.512Z,12.50
2022-10-22T01:14:27.722Z,12.50
2022-10-22T01:17:34.131Z,12.60
2022-10-22T01:20:33.899Z,12.60
2022-10-22T01:23:33.642Z,12.60
2022-10-22T01:26:15.496Z,12.60
2022-10-22T01:28:51.273Z,12.60
2022-10-22T01:31:19.984Z,12.60
2022-10-22T01:33:49.250Z,12.60
2022-10-22T01:36:17.630Z,12.60
2022-10-22T01:38:46.052Z,12.60
2022-10-22T01:41:13.944Z,12.60
2022-10-22T01:43:40.504Z,12.70
2022-10-22T01:46:10.152Z,12.60
2022-10-22T01:49:02.953Z,12.70
2022-10-22T01:51:54.437Z,12.70
2022-10-22T01:54:39.949Z,12.80
2022-10-22T01:57:42.233Z,12.80
2022-10-22T02:00:13.646Z,12.80
2022-10-22T02:03:09.755Z,12.80
2022-10-22T02:05:47.797Z,12.90
2022-10-22T02:08:20.629Z,12.90
2022-10-22T02:10:48.477Z,12.90
2022-10-22T02:13:23.493Z,13.00
2022-10-22T02:15:53.887Z,13.00
2022-10-22T02:18:25.189Z,13.00
2022-10-22T02:20:52.874Z,13.00
2022-10-22T02:23:21.355Z,13.10
2022-10-22T02:25:54.107Z,13.20
2022-10-22T02:28:38.365Z,13.20
2022-10-22T02:31:19.107Z,13.20
2022-10-22T02:33:49.484Z,13.20
2022-10-22T02:36:17.279Z,13.20
2022-10-22T02:38:46.011Z,13.20
2022-10-22T02:41:12.760Z,13.20
2022-10-22T02:43:44.891Z,13.10
2022-10-22T02:46:12.154Z,13.10
2022-10-22T02:48:38.723Z,13.10
2022-10-22T02:51:05.531Z,13.10
2022-10-22T02:53:32.563Z,13.10
2022-10-22T02:55:59.563Z,13.10
2022-10-22T02:58:26.181Z,13.10
2022-10-22T03:00:52.839Z,13.10
2022-10-22T03:03:19.430Z,13.20
2022-10-22T03:05:46.060Z,13.20
2022-10-22T03:08:13.392Z,13.10
2022-10-22T03:10:39.949Z,13.20
2022-10-22T03:13:06.608Z,13.20
2022-10-22T03:15:33.271Z,13.10
2022-10-22T03:17:59.895Z,13.10
2022-10-22T03:20:26.588Z,13.10
2022-10-22T03:22:53.572Z,13.10
2022-10-22T03:25:24.290Z,13.10
2022-10-22T03:27:54.415Z,13.00
2022-10-22T03:30:21.371Z,13.00
2022-10-22T03:32:47.980Z,13.00
2022-10-22T03:35:14.607Z,13.00
2022-10-22T03:37:41.651Z,13.00
2022-10-22T03:40:11.370Z,13.00
2022-10-22T03:42:38.218Z,12.90
2022-10-22T03:45:05.969Z,12.90
2022-10-22T03:47:32.590Z,12.90
2022-10-22T03:49:59.845Z,12.90
2022-10-22T03:52:26.557Z,12.90
2022-10-22T03:54:53.209Z,12.80
2022-10-22T03:57:19.793Z,12.80
2022-10-22T03:59:47.135Z,12.90
2022-10-22T04:02:14.167Z,12.90
2022-10-22T04:04:40.747Z,12.80
2022-10-22T04:07:08.368Z,12.80
2022-10-22T04:09:35.697Z,12.80
2022-10-22T04:12:02.405Z,12.80
2022-10-22T04:14:28.988Z,12.70
2022-10-22T04:16:55.627Z,12.70
2022-10-22T04:19:22.324Z,12.70
2022-10-22T04:21:49.000Z,12.70
2022-10-22T04:24:15.905Z,12.70
2022-10-22T04:26:42.695Z,12.70
2022-10-22T04:29:13.437Z,12.70
2022-10-22T04:31:42.664Z,12.70
2022-10-22T04:34:09.366Z,12.70
2022-10-22T04:36:35.940Z,12.70
2022-10-22T04:39:03.933Z,12.70
2022-10-22T04:41:36.712Z,12.70
2022-10-22T04:44:04.392Z,12.70
2022-10-22T04:46:33.384Z,12.70
2022-10-22T04:49:00.813Z,12.70
2022-10-22T04:51:27.884Z,12.60
2022-10-22T04:53:55.172Z,12.60
2022-10-22T04:56:30.637Z,12.60
2022-10-22T04:59:00.579Z,12.50
2022-10-22T05:01:41.718Z,12.50
2022-10-22T05:04:14.240Z,12.50
2022-10-22T05:06:41.202Z,12.40
2022-10-22T05:09:14.818Z,12.40
2022-10-22T05:11:48.464Z,12.40
2022-10-22T05:14:20.268Z,12.40
2022-10-22T05:16:48.375Z,12.40
2022-10-22T05:19:23.913Z,12.40
2022-10-22T05:21:52.658Z,12.50
2022-10-22T05:24:19.392Z,12.70
2022-10-22T05:26:49.536Z,12.70
2022-10-22T05:29:16.194Z,12.70
2022-10-22T05:31:42.780Z,12.70
2022-10-22T05:34:09.542Z,12.80
2022-10-22T05:36:36.434Z,12.80
2022-10-22T05:39:03.760Z,12.80
2022-10-22T05:41:30.373Z,12.80
2022-10-22T05:43:59.464Z,12.80
2022-10-22T05:46:32.657Z,12.80
2022-10-22T05:49:02.392Z,12.80
2022-10-22T05:51:31.808Z,12.80
2022-10-22T05:54:01.976Z,12.90
2022-10-22T05:56:31.878Z,12.90
2022-10-22T05:58:58.877Z,12.90
2022-10-22T06:01:31.993Z,12.90
2022-10-22T06:04:02.365Z,12.90
2022-10-22T06:06:45.646Z,12.90
2022-10-22T06:09:24.094Z,12.80
2022-10-22T06:11:51.624Z,12.80
2022-10-22T06:14:24.709Z,12.80
2022-10-22T06:16:52.258Z,12.80
2022-10-22T06:19:21.086Z,12.70
2022-10-22T06:21:48.136Z,12.70
2022-10-22T06:24:15.539Z,12.80
2022-10-22T06:26:42.297Z,12.80
2022-10-22T06:29:09.012Z,12.80
2022-10-22T06:31:38.518Z,12.70
2022-10-22T06:34:08.338Z,12.70
2022-10-22T06:36:35.280Z,12.60
2022-10-22T06:39:03.273Z,12.70
2022-10-22T06:41:29.904Z,12.60
2022-10-22T06:43:57.519Z,12.60
2022-10-22T06:46:25.605Z,12.70
2022-10-22T06:48:56.554Z,12.60
2022-10-22T06:51:24.205Z,12.70
2022-10-22T06:53:51.261Z,12.70
2022-10-22T06:56:21.408Z,12.80
2022-10-22T06:58:53.756Z,12.80
2022-10-22T07:01:24.539Z,12.80
2022-10-22T07:03:52.376Z,12.90
2022-10-22T07:06:20.845Z,12.90
2022-10-22T07:08:47.663Z,13.00
2022-10-22T07:11:20.362Z,13.10
2022-10-22T07:13:48.145Z,13.20
2022-10-22T07:16:16.094Z,13.20
2022-10-22T07:18:43.463Z,13.30
2022-10-22T07:21:12.223Z,13.40
2022-10-22T07:23:39.321Z,13.40
2022-10-22T07:26:07.397Z,13.60
2022-10-22T07:28:36.473Z,13.60
2022-10-22T07:31:03.625Z,13.70
2022-10-22T07:33:30.170Z,13.80
2022-10-22T07:36:02.628Z,13.90
2022-10-22T07:38:31.437Z,13.90
2022-10-22T07:40:58.802Z,14.00
2022-10-22T07:43:25.711Z,14.00
2022-10-22T07:45:52.898Z,14.10
2022-10-22T07:48:19.476Z,14.10
2022-10-22T07:50:46.126Z,14.20
2022-10-22T07:53:12.728Z,14.20
2022-10-22T07:55:39.309Z,14.30
2022-10-22T07:58:05.897Z,14.30
2022-10-22T08:00:32.605Z,14.40
2022-10-22T08:02:59.170Z,14.60
2022-10-22T08:05:25.967Z,14.60
2022-10-22T08:07:52.538Z,14.70
2022-10-22T08:10:19.242Z,14.90
2022-10-22T08:12:45.995Z,15.00
2022-10-22T08:15:12.599Z,15.10
2022-10-22T08:17:39.562Z,15.20
2022-10-22T08:20:07.303Z,15.30
2022-10-22T08:22:33.930Z,15.50
2022-10-22T08:25:00.538Z,15.60
2022-10-22T08:27:27.447Z,15.80
2022-10-22T08:29:54.166Z,16.00
2022-10-22T08:32:20.832Z,16.50
2022-10-22T08:34:47.418Z,18.20
2022-10-22T08:37:14.327Z,21.10
2022-10-22T08:39:41.608Z,23.20
2022-10-22T08:42:34.016Z,24.80
2022-10-22T08:45:25.171Z,25.70
2022-10-22T08:48:34.436Z,27.60
2022-10-22T08:51:01.057Z,28.90
2022-10-22T08:53:43.978Z,30.20
2022-10-22T08:56:10.646Z,30.50
2022-10-22T08:59:05.865Z,28.60
2022-10-22T09:01:41.662Z,26.40
2022-10-22T09:06:44.193Z,23.20
2022-10-22T09:09:18.361Z,22.10
2022-10-22T09:14:24.846Z,20.50
2022-10-22T09:17:00.348Z,19.70
2022-10-22T09:19:57.816Z,19.50
2022-10-22T09:22:44.917Z,19.20
2022-10-22T09:25:20.749Z,18.70
2022-10-22T09:27:48.912Z,18.30
2022-10-22T09:30:25.221Z,18.10
2022-10-22T09:33:01.318Z,18.00
2022-10-22T09:35:28.685Z,17.80
2022-10-22T09:37:57.041Z,17.80
2022-10-22T09:40:24.050Z,17.70
2022-10-22T09:42:51.177Z,17.70
2022-10-22T09:45:26.118Z,17.70
2022-10-22T09:48:28.338Z,17.80
2022-10-22T09:51:44.322Z,17.80
2022-10-22T09:54:34.177Z,17.90
2022-10-22T09:57:17.438Z,18.10
2022-10-22T09:59:50.626Z,18.20
2022-10-22T10:02:38.109Z,18.10
2022-10-22T10:05:07.068Z,18.10
2022-10-22T10:07:35.998Z,18.10
2022-10-22T10:10:16.915Z,18.40
2022-10-22T10:13:07.634Z,18.60
2022-10-22T10:16:31.767Z,18.70
2022-10-22T10:19:07.978Z,19.00
2022-10-22T10:22:15.382Z,19.00
2022-10-22T10:24:55.405Z,18.90
2022-10-22T10:27:48.710Z,18.80
2022-10-22T10:30:19.446Z,18.70
2022-10-22T10:33:27.494Z,18.60
2022-10-22T10:36:31.056Z,18.70
2022-10-22T10:39:20.497Z,18.70
2022-10-22T10:42:26.399Z,18.70
2022-10-22T10:45:31.662Z,18.80
2022-10-22T10:48:23.532Z,18.90
2022-10-22T10:51:15.795Z,18.70
2022-10-22T10:54:11.939Z,18.80
2022-10-22T10:56:45.660Z,18.80
2022-10-22T10:59:30.530Z,18.70
2022-10-22T11:02:15.711Z,18.60
2022-10-22T11:05:14.584Z,18.70
2022-10-22T11:07:53.480Z,18.70
2022-10-22T11:10:32.852Z,18.80
2022-10-22T11:13:22.863Z,18.80
2022-10-22T11:16:09.795Z,18.70
2022-10-22T11:19:05.900Z,18.60
2022-10-22T11:21:35.005Z,18.60
2022-10-22T11:24:21.839Z,18.70
2022-10-22T11:27:03.927Z,18.80
2022-10-22T11:29:45.492Z,19.10
2022-10-22T11:32:19.921Z,19.30
2022-10-22T11:34:55.068Z,19.20
2022-10-22T11:37:26.288Z,19.20
2022-10-22T11:39:59.662Z,19.20
2022-10-22T11:42:50.809Z,19.00
2022-10-22T11:45:17.296Z,18.70
2022-10-22T11:48:10.713Z,18.70
2022-10-22T11:50:48.337Z,18.50
2022-10-22T11:53:14.858Z,18.40
2022-10-22T11:55:51.512Z,18.30
2022-10-22T11:58:43.755Z,18.30
2022-10-22T12:01:10.300Z,18.30
2022-10-22T12:03:59.312Z,18.20
2022-10-22T12:06:29.273Z,18.40
2022-10-22T12:09:04.787Z,18.60
2022-10-22T12:11:47.624Z,18.80
2022-10-22T12:14:26.779Z,19.00
2022-10-22T12:17:10.596Z,18.90
2022-10-22T12:19:41.347Z,18.90
2022-10-22T12:22:17.323Z,18.80
2022-10-22T12:24:50.049Z,18.80
2022-10-22T12:27:38.096Z,18.80
2022-10-22T12:30:18.552Z,18.80
2022-10-22T12:32:45.857Z,19.10
2022-10-22T12:35:20.867Z,19.20
2022-10-22T12:38:16.032Z,19.10
2022-10-22T12:40:46.070Z,19.00
2022-10-22T12:43:24.109Z,18.80
2022-10-22T12:45:51.776Z,18.50
2022-10-22T12:48:28.688Z,18.70
2022-10-22T12:51:00.090Z,18.70
2022-10-22T12:53:32.102Z,18.60
2022-10-22T12:56:15.846Z,18.60
2022-10-22T12:58:48.194Z,18.50
2022-10-22T13:01:17.628Z,18.30
2022-10-22T13:03:51.630Z,18.20
2022-10-22T13:06:18.178Z,18.20
2022-10-22T13:09:15.169Z,18.30
2022-10-22T13:12:01.545Z,18.30
2022-10-22T13:14:32.363Z,18.50
2022-10-22T13:17:15.546Z,18.60
2022-10-22T13:20:05.213Z,18.60
2022-10-22T13:22:37.487Z,18.70
2022-10-22T13:25:13.318Z,18.80
2022-10-22T13:27:48.923Z,18.80
2022-10-22T13:30:34.794Z,18.90
2022-10-22T13:33:23.612Z,18.80
2022-10-22T13:35:50.189Z,18.60
2022-10-22T13:38:20.226Z,18.50
2022-10-22T13:40:47.198Z,18.40
2022-10-22T13:43:14.298Z,18.30
2022-10-22T13:45:41.224Z,18.20
2022-10-22T13:48:15.727Z,18.10
2022-10-22T13:50:42.963Z,18.00
2022-10-22T13:53:18.812Z,17.90
2022-10-22T13:55:46.386Z,17.80
2022-10-22T14:00:55.700Z,17.50
2022-10-22T14:03:31.273Z,17.50
2022-10-22T14:05:58.380Z,17.50
2022-10-22T14:08:27.088Z,17.50
2022-10-22T14:10:54.894Z,17.50
2022-10-22T14:13:22.003Z,17.50
2022-10-22T14:15:51.375Z,17.40
2022-10-22T14:18:27.163Z,17.30
2022-10-22T14:21:00.193Z,17.30
2022-10-22T14:23:32.041Z,17.30
2022-10-22T14:25:59.675Z,17.30
2022-10-22T14:28:26.420Z,17.40
2022-10-22T14:30:55.654Z,17.40
2022-10-22T14:33:32.270Z,17.50
2022-10-22T14:36:02.455Z,17.40
2022-10-22T14:38:30.354Z,17.40
2022-10-22T14:40:57.878Z,17.50
2022-10-22T14:43:27.987Z,17.50
2022-10-22T14:45:54.927Z,17.50
2022-10-22T14:48:21.584Z,17.50
2022-10-22T14:50:48.550Z,17.50
2022-10-22T14:53:16.722Z,17.50
2022-10-22T14:55:44.580Z,17.50
2022-10-22T14:58:12.247Z,17.50
2022-10-22T15:00:42.303Z,17.50
2022-10-22T15:03:09.872Z,17.50
2022-10-22T15:05:43.234Z,17.50
2022-10-22T15:08:14.055Z,17.60
2022-10-22T15:10:41.414Z,17.50
2022-10-22T15:13:08.064Z,17.50
2022-10-22T15:15:39.446Z,17.50
2022-10-22T15:18:07.228Z,17.50
2022-10-22T15:20:33.821Z,17.40
2022-10-22T15:23:00.424Z,17.30
2022-10-22T15:25:26.989Z,17.30
2022-10-22T15:27:56.526Z,17.20
2022-10-22T15:30:28.621Z,17.20
2022-10-22T15:32:55.192Z,17.10
2022-10-22T15:35:21.761Z,17.10
2022-10-22T15:37:51.630Z,17.00
2022-10-22T15:40:18.189Z,16.90
2022-10-22T15:42:47.201Z,16.90
2022-10-22T15:45:14.069Z,16.80
2022-10-22T15:47:47.363Z,16.70
2022-10-22T15:50:14.617Z,16.70
2022-10-22T15:52:41.206Z,16.60
2022-10-22T15:55:10.369Z,16.40
2022-10-22T15:57:38.222Z,16.40
2022-10-22T16:00:06.789Z,16.30
2022-10-22T16:02:33.461Z,16.30
2022-10-22T16:05:00.099Z,16.20
2022-10-22T16:07:26.885Z,16.10
2022-10-22T16:09:58.073Z,16.10
2022-10-22T16:12:24.712Z,16.00
2022-10-22T16:14:51.669Z,15.80
2022-10-22T16:17:18.373Z,15.70
2022-10-22T16:19:45.045Z,15.50
2022-10-22T16:22:13.628Z,15.40
2022-10-22T16:24:40.865Z,15.20
2022-10-22T16:27:08.633Z,15.10
2022-10-22T16:29:38.072Z,15.00
2022-10-22T16:32:05.073Z,14.80
2022-10-22T16:34:31.645Z,14.70
2022-10-22T16:36:58.236Z,14.50
2022-10-22T16:39:25.058Z,14.40
2022-10-22T16:41:51.714Z,14.30
2022-10-22T16:44:18.408Z,14.20
2022-10-22T16:46:44.974Z,14.10
2022-10-22T16:49:11.822Z,14.10
2022-10-22T16:51:39.280Z,14.00
2022-10-22T16:54:08.397Z,13.90
2022-10-22T16:56:38.037Z,13.80
2022-10-22T16:59:04.696Z,13.70
2022-10-22T17:01:31.451Z,13.60
2022-10-22T17:04:01.853Z,13.60
2022-10-22T17:06:28.709Z,13.50
2022-10-22T17:08:55.424Z,13.40
2022-10-22T17:11:24.756Z,13.30
2022-10-22T17:13:54.290Z,13.30
2022-10-22T17:16:24.263Z,13.30
2022-10-22T17:18:53.028Z,13.30
2022-10-22T17:21:20.455Z,13.20
2022-10-22T17:23:47.368Z,13.20
2022-10-22T17:26:19.511Z,13.10
2022-10-22T17:28:46.677Z,13.10
2022-10-22T17:31:23.882Z,13.00
2022-10-22T17:33:53.416Z,12.90
2022-10-22T17:36:21.765Z,12.90
2022-10-22T17:38:52.253Z,12.80
2022-10-22T17:41:25.430Z,12.80
2022-10-22T17:43:52.379Z,12.80
2022-10-22T17:46:27.116Z,12.80
2022-10-22T17:48:57.420Z,12.70
2022-10-22T17:51:25.560Z,12.70
2022-10-22T17:53:52.867Z,12.60
2022-10-22T17:56:23.981Z,12.60
2022-10-22T17:58:50.959Z,12.60
2022-10-22T18:01:32.834Z,12.60
2022-10-22T18:04:04.101Z,12.60
2022-10-22T18:06:31.269Z,12.50
2022-10-22T18:08:58.222Z,12.40
2022-10-22T18:11:27.537Z,12.40
2022-10-22T18:13:57.000Z,12.40
2022-10-22T18:16:24.544Z,12.30
2022-10-22T18:18:56.671Z,12.30
2022-10-22T18:21:27.117Z,12.30
2022-10-22T18:23:54.821Z,12.20
2022-10-22T18:26:25.847Z,12.20
2022-10-22T18:28:53.876Z,12.20
2022-10-22T18:31:24.489Z,12.20
2022-10-22T18:36:23.805Z,12.20
2022-10-22T18:39:00.348Z,12.10
2022-10-22T18:41:29.198Z,12.10
2022-10-22T18:44:03.130Z,12.00
2022-10-22T18:46:31.559Z,11.90
2022-10-22T18:48:59.165Z,11.90
2022-10-22T18:51:32.441Z,11.90
2022-10-22T18:54:05.785Z,11.90
2022-10-22T18:56:46.237Z,11.90
2022-10-22T18:59:25.221Z,11.90
2022-10-22T19:01:53.710Z,11.90
2022-10-22T19:04:20.402Z,11.90
2022-10-22T19:06:47.243Z,11.80
2022-10-22T19:09:15.727Z,11.80
2022-10-22T19:11:44.723Z,11.80
2022-10-22T19:14:13.011Z,11.80
2022-10-22T19:16:39.593Z,11.80
2022-10-22T19:19:07.846Z,11.80
2022-10-22T19:21:38.041Z,11.80
2022-10-22T19:24:05.257Z,11.70
2022-10-22T19:26:32.254Z,11.70
2022-10-22T19:29:00.004Z,11.70
2022-10-22T19:31:29.714Z,11.60
2022-10-22T19:33:56.751Z,11.60
2022-10-22T19:36:27.344Z,11.60
2022-10-22T19:38:54.647Z,11.60
2022-10-22T19:41:23.404Z,11.60
2022-10-22T19:43:52.847Z,11.60
2022-10-22T19:46:21.592Z,11.60
2022-10-22T19:48:48.747Z,11.60
2022-10-22T19:51:20.364Z,11.70
2022-10-22T19:53:49.135Z,11.60
2022-10-22T19:56:20.661Z,11.60
2022-10-22T19:58:47.495Z,11.60
2022-10-22T20:01:16.907Z,11.60
2022-10-22T20:03:43.747Z,11.60
2022-10-22T20:06:12.844Z,11.50
2022-10-22T20:08:40.263Z,11.50
2022-10-22T20:11:17.324Z,11.50
2022-10-22T20:13:48.006Z,11.40
2022-10-22T20:16:22.859Z,11.40
2022-10-22T20:18:50.814Z,11.40
2022-10-22T20:21:19.177Z,11.30
2022-10-22T20:23:47.333Z,11.30
2022-10-22T20:26:14.221Z,11.30
2022-10-22T20:28:40.904Z,11.30
2022-10-22T20:31:12.830Z,11.30
2022-10-22T20:33:39.543Z,11.30
2022-10-22T20:36:09.572Z,11.30
2022-10-22T20:41:08.426Z,11.30
2022-10-22T20:43:35.080Z,11.30
2022-10-22T20:46:02.982Z,11.30
2022-10-22T20:48:31.178Z,11.30
2022-10-22T20:50:59.571Z,11.30
2022-10-22T20:53:26.927Z,11.30
2022-10-22T20:55:57.655Z,11.20
2022-10-22T20:58:26.838Z,11.20
2022-10-22T21:00:55.291Z,11.20
2022-10-22T21:03:22.101Z,11.30
2022-10-22T21:05:48.921Z,11.30
2022-10-22T21:08:17.444Z,11.30
2022-10-22T21:10:48.797Z,11.30
2022-10-22T21:13:16.541Z,11.30
2022-10-22T21:15:43.121Z,11.30
2022-10-22T21:18:09.817Z,11.30
2022-10-22T21:20:38.900Z,11.30
2022-10-22T21:23:05.630Z,11.20
2022-10-22T21:25:32.215Z,11.20
2022-10-22T21:27:58.882Z,11.20
2022-10-22T21:30:25.455Z,11.20
2022-10-22T21:32:52.013Z,11.20
2022-10-22T21:35:18.637Z,11.20
2022-10-22T21:37:45.179Z,11.20
2022-10-22T21:40:13.063Z,11.20
2022-10-22T21:42:39.652Z,11.20
2022-10-22T21:45:12.063Z,11.20
2022-10-22T21:47:41.179Z,11.20
2022-10-22T21:50:08.487Z,11.20
2022-10-22T21:52:35.090Z,11.20
2022-10-22T21:55:01.711Z,11.20
2022-10-22T21:57:28.269Z,11.20
2022-10-22T21:59:54.876Z,11.20
2022-10-22T22:04:54.669Z,11.10
2022-10-22T22:07:22.070Z,11.10
2022-10-22T22:09:51.024Z,11.10
2022-10-22T22:12:18.228Z,11.10
2022-10-22T22:14:44.814Z,11.10
2022-10-22T22:17:11.495Z,11.10
2022-10-22T22:19:38.784Z,11.00
2022-10-22T22:22:05.972Z,10.90
2022-10-22T22:24:32.788Z,10.90
2022-10-22T22:26:59.409Z,10.80
2022-10-22T22:29:25.994Z,10.80
2022-10-22T22:31:54.938Z,10.70
2022-10-22T22:34:21.612Z,10.70
2022-10-22T22:36:49.622Z,10.70
2022-10-22T22:39:19.812Z,10.60
2022-10-22T22:41:46.647Z,10.60
2022-10-22T22:44:13.837Z,10.60
2022-10-22T22:46:41.008Z,10.60
2022-10-22T22:49:08.589Z,10.60
2022-10-22T22:51:35.420Z,10.50
2022-10-22T22:54:02.404Z,10.50
2022-10-22T22:56:32.056Z,10.50
2022-10-22T22:58:59.086Z,10.50
2022-10-22T23:01:36.154Z,10.50
2022-10-22T23:04:18.913Z,10.50
2022-10-22T23:06:46.094Z,10.50
2022-10-22T23:09:14.958Z,10.50
2022-10-22T23:11:44.651Z,10.50
2022-10-22T23:14:14.698Z,10.40
2022-10-22T23:16:46.085Z,10.50
2022-10-22T23:19:19.604Z,10.50
2022-10-22T23:21:50.617Z,10.50
2022-10-22T23:24:22.224Z,10.60
2022-10-22T23:26:51.156Z,10.60
2022-10-22T23:29:19.925Z,10.60
2022-10-22T23:31:47.999Z,10.70
2022-10-22T23:36:46.485Z,10.70
2022-10-22T23:39:17.192Z,10.70
2022-10-22T23:41:44.160Z,10.60
2022-10-22T23:44:11.512Z,10.60
2022-10-22T23:46:38.490Z,10.60
2022-10-22T23:49:07.468Z,10.60
2022-10-22T23:51:35.016Z,10.60
2022-10-22T23:54:07.920Z,10.50
2022-10-22T23:56:35.518Z,10.50
2022-10-22T23:59:02.787Z,10.50
